sensor_id;sensor_type;location;lat;lon;timestamp;temperature;humidity
65291;SHT30;51893;59.754;10.110;2022-08-03T00:02:18;16.53;87.75
65291;SHT30;51893;59.754;10.110;2022-08-03T00:04:46;16.56;87.70
65291;SHT30;51893;59.754;10.110;2022-08-03T00:07:14;16.56;87.70
65291;SHT30;51893;59.754;10.110;2022-08-03T00:09:42;16.63;87.50
65291;SHT30;51893;59.754;10.110;2022-08-03T00:12:10;16.67;87.41
65291;SHT30;51893;59.754;10.110;2022-08-03T00:14:39;16.73;87.15
65291;SHT30;51893;59.754;10.110;2022-08-03T00:17:08;16.80;86.91
65291;SHT30;51893;59.754;10.110;2022-08-03T00:19:35;16.87;86.77
65291;SHT30;51893;59.754;10.110;2022-08-03T00:22:03;16.79;86.47
65291;SHT30;51893;59.754;10.110;2022-08-03T00:24:31;16.63;86.48
65291;SHT30;51893;59.754;10.110;2022-08-03T00:26:58;16.55;86.59
65291;SHT30;51893;59.754;10.110;2022-08-03T00:29:26;16.57;86.22
65291;SHT30;51893;59.754;10.110;2022-08-03T00:31:54;16.55;86.31
65291;SHT30;51893;59.754;10.110;2022-08-03T00:34:26;16.52;86.38
65291;SHT30;51893;59.754;10.110;2022-08-03T00:37:15;16.46;86.79
65291;SHT30;51893;59.754;10.110;2022-08-03T00:39:43;16.45;86.85
65291;SHT30;51893;59.754;10.110;2022-08-03T00:42:13;16.47;86.86
65291;SHT30;51893;59.754;10.110;2022-08-03T00:44:42;16.50;86.86
65291;SHT30;51893;59.754;10.110;2022-08-03T00:47:13;16.57;86.81
65291;SHT30;51893;59.754;10.110;2022-08-03T00:49:41;16.64;86.74
65291;SHT30;51893;59.754;10.110;2022-08-03T00:52:09;16.68;86.79
65291;SHT30;51893;59.754;10.110;2022-08-03T00:54:41;16.75;86.75
65291;SHT30;51893;59.754;10.110;2022-08-03T00:57:10;16.77;86.58
65291;SHT30;51893;59.754;10.110;2022-08-03T00:59:37;16.65;87.04
65291;SHT30;51893;59.754;10.110;2022-08-03T01:02:05;16.51;86.98
65291;SHT30;51893;59.754;10.110;2022-08-03T01:04:34;16.44;86.91
65291;SHT30;51893;59.754;10.110;2022-08-03T01:07:05;16.40;87.09
65291;SHT30;51893;59.754;10.110;2022-08-03T01:13:20;16.29;86.58
65291;SHT30;51893;59.754;10.110;2022-08-03T01:25:27;16.18;87.10
65291;SHT30;51893;59.754;10.110;2022-08-03T01:30:58;16.19;87.29
65291;SHT30;51893;59.754;10.110;2022-08-03T01:33:42;16.17;87.12
65291;SHT30;51893;59.754;10.110;2022-08-03T01:36:31;16.17;86.93
65291;SHT30;51893;59.754;10.110;2022-08-03T01:39:05;16.09;87.13
65291;SHT30;51893;59.754;10.110;2022-08-03T01:41:39;16.06;87.26
65291;SHT30;51893;59.754;10.110;2022-08-03T01:44:29;16.00;87.31
65291;SHT30;51893;59.754;10.110;2022-08-03T01:47:02;15.94;87.96
65291;SHT30;51893;59.754;10.110;2022-08-03T01:49:34;15.92;88.36
65291;SHT30;51893;59.754;10.110;2022-08-03T01:52:06;15.88;88.69
65291;SHT30;51893;59.754;10.110;2022-08-03T01:54:36;15.86;88.87
65291;SHT30;51893;59.754;10.110;2022-08-03T01:57:10;15.85;88.53
65291;SHT30;51893;59.754;10.110;2022-08-03T01:59:41;15.88;88.39
65291;SHT30;51893;59.754;10.110;2022-08-03T02:02:11;15.89;88.21
65291;SHT30;51893;59.754;10.110;2022-08-03T02:05:00;15.87;88.04
65291;SHT30;51893;59.754;10.110;2022-08-03T02:07:39;15.82;87.98
65291;SHT30;51893;59.754;10.110;2022-08-03T02:10:09;15.77;88.22
65291;SHT30;51893;59.754;10.110;2022-08-03T02:12:41;15.71;88.45
65291;SHT30;51893;59.754;10.110;2022-08-03T02:15:14;15.68;88.96
65291;SHT30;51893;59.754;10.110;2022-08-03T02:17:45;15.68;89.21
65291;SHT30;51893;59.754;10.110;2022-08-03T02:20:14;15.65;89.54
65291;SHT30;51893;59.754;10.110;2022-08-03T02:22:43;15.67;89.35
65291;SHT30;51893;59.754;10.110;2022-08-03T02:25:13;15.69;89.30
65291;SHT30;51893;59.754;10.110;2022-08-03T02:27:50;15.74;89.29
65291;SHT30;51893;59.754;10.110;2022-08-03T02:30:30;15.77;89.07
65291;SHT30;51893;59.754;10.110;2022-08-03T02:33:06;15.73;88.93
65291;SHT30;51893;59.754;10.110;2022-08-03T02:35:46;15.75;88.81
65291;SHT30;51893;59.754;10.110;2022-08-03T02:38:17;15.73;88.98
65291;SHT30;51893;59.754;10.110;2022-08-03T02:40:49;15.80;88.93
65291;SHT30;51893;59.754;10.110;2022-08-03T02:43:21;15.83;89.14
65291;SHT30;51893;59.754;10.110;2022-08-03T02:45:51;15.84;89.24
65291;SHT30;51893;59.754;10.110;2022-08-03T02:48:21;15.90;89.31
65291;SHT30;51893;59.754;10.110;2022-08-03T02:50:54;15.93;89.43
65291;SHT30;51893;59.754;10.110;2022-08-03T02:53:26;15.99;89.15
65291;SHT30;51893;59.754;10.110;2022-08-03T02:55:56;16.00;89.23
65291;SHT30;51893;59.754;10.110;2022-08-03T02:58:28;16.02;89.27
65291;SHT30;51893;59.754;10.110;2022-08-03T03:00:58;16.06;89.21
65291;SHT30;51893;59.754;10.110;2022-08-03T03:03:28;16.12;88.94
65291;SHT30;51893;59.754;10.110;2022-08-03T03:06:01;16.14;89.12
65291;SHT30;51893;59.754;10.110;2022-08-03T03:08:32;16.11;89.43
65291;SHT30;51893;59.754;10.110;2022-08-03T03:11:02;16.09;89.22
65291;SHT30;51893;59.754;10.110;2022-08-03T03:13:32;16.07;89.01
65291;SHT30;51893;59.754;10.110;2022-08-03T03:16:01;16.06;88.99
65291;SHT30;51893;59.754;10.110;2022-08-03T03:18:32;16.06;89.16
65291;SHT30;51893;59.754;10.110;2022-08-03T03:21:02;16.04;89.38
65291;SHT30;51893;59.754;10.110;2022-08-03T03:23:31;16.00;89.73
65291;SHT30;51893;59.754;10.110;2022-08-03T03:26:04;16.04;89.61
65291;SHT30;51893;59.754;10.110;2022-08-03T03:28:34;16.06;89.51
65291;SHT30;51893;59.754;10.110;2022-08-03T03:31:05;16.15;89.37
65291;SHT30;51893;59.754;10.110;2022-08-03T03:33:35;16.19;89.29
65291;SHT30;51893;59.754;10.110;2022-08-03T03:36:05;16.25;89.19
65291;SHT30;51893;59.754;10.110;2022-08-03T03:38:35;16.28;89.05
65291;SHT30;51893;59.754;10.110;2022-08-03T03:41:03;16.31;88.83
65291;SHT30;51893;59.754;10.110;2022-08-03T03:43:32;16.25;88.70
65291;SHT30;51893;59.754;10.110;2022-08-03T03:46:00;16.19;88.90
65291;SHT30;51893;59.754;10.110;2022-08-03T03:48:29;16.15;89.21
65291;SHT30;51893;59.754;10.110;2022-08-03T03:50:58;16.20;89.15
65291;SHT30;51893;59.754;10.110;2022-08-03T03:53:27;16.23;89.01
65291;SHT30;51893;59.754;10.110;2022-08-03T03:55:55;16.26;89.21
65291;SHT30;51893;59.754;10.110;2022-08-03T03:58:30;16.26;89.18
65291;SHT30;51893;59.754;10.110;2022-08-03T04:00:59;16.22;89.21
65291;SHT30;51893;59.754;10.110;2022-08-03T04:03:28;16.16;89.20
65291;SHT30;51893;59.754;10.110;2022-08-03T04:05:55;16.11;89.27
65291;SHT30;51893;59.754;10.110;2022-08-03T04:08:43;16.11;89.49
65291;SHT30;51893;59.754;10.110;2022-08-03T04:11:33;16.16;89.32
65291;SHT30;51893;59.754;10.110;2022-08-03T04:14:08;16.17;89.28
65291;SHT30;51893;59.754;10.110;2022-08-03T04:16:45;16.23;89.24
65291;SHT30;51893;59.754;10.110;2022-08-03T04:19:23;16.30;89.24
65291;SHT30;51893;59.754;10.110;2022-08-03T04:22:08;16.34;89.36
65291;SHT30;51893;59.754;10.110;2022-08-03T04:24:42;16.36;89.56
65291;SHT30;51893;59.754;10.110;2022-08-03T04:27:20;16.41;89.50
65291;SHT30;51893;59.754;10.110;2022-08-03T04:29:53;16.44;89.66
65291;SHT30;51893;59.754;10.110;2022-08-03T04:32:23;16.47;89.39
65291;SHT30;51893;59.754;10.110;2022-08-03T04:34:55;16.52;89.15
65291;SHT30;51893;59.754;10.110;2022-08-03T04:37:25;16.53;89.02
65291;SHT30;51893;59.754;10.110;2022-08-03T04:40:15;16.55;88.92
65291;SHT30;51893;59.754;10.110;2022-08-03T04:42:56;16.59;88.83
65291;SHT30;51893;59.754;10.110;2022-08-03T04:45:27;16.62;88.62
65291;SHT30;51893;59.754;10.110;2022-08-03T04:47:56;16.63;88.81
65291;SHT30;51893;59.754;10.110;2022-08-03T04:50:29;16.64;88.86
65291;SHT30;51893;59.754;10.110;2022-08-03T04:52:57;16.65;88.72
65291;SHT30;51893;59.754;10.110;2022-08-03T04:55:27;16.65;88.64
65291;SHT30;51893;59.754;10.110;2022-08-03T04:57:58;16.67;88.84
65291;SHT30;51893;59.754;10.110;2022-08-03T05:00:28;16.70;88.84
65291;SHT30;51893;59.754;10.110;2022-08-03T05:02:56;16.82;88.70
65291;SHT30;51893;59.754;10.110;2022-08-03T05:05:24;17.00;88.33
65291;SHT30;51893;59.754;10.110;2022-08-03T05:08:13;17.13;87.91
65291;SHT30;51893;59.754;10.110;2022-08-03T05:10:40;17.18;87.76
65291;SHT30;51893;59.754;10.110;2022-08-03T05:13:08;17.22;88.10
65291;SHT30;51893;59.754;10.110;2022-08-03T05:15:40;17.29;88.07
65291;SHT30;51893;59.754;10.110;2022-08-03T05:18:09;17.34;88.07
65291;SHT30;51893;59.754;10.110;2022-08-03T05:20:40;17.39;88.26
65291;SHT30;51893;59.754;10.110;2022-08-03T05:23:08;17.43;88.32
65291;SHT30;51893;59.754;10.110;2022-08-03T05:25:36;17.48;88.11
65291;SHT30;51893;59.754;10.110;2022-08-03T05:28:05;17.50;88.10
65291;SHT30;51893;59.754;10.110;2022-08-03T05:30:33;17.50;88.08
65291;SHT30;51893;59.754;10.110;2022-08-03T05:33:01;17.51;88.12
65291;SHT30;51893;59.754;10.110;2022-08-03T05:35:30;17.57;87.57
65291;SHT30;51893;59.754;10.110;2022-08-03T05:38:21;17.72;87.01
65291;SHT30;51893;59.754;10.110;2022-08-03T05:40:56;17.84;86.71
65291;SHT30;51893;59.754;10.110;2022-08-03T05:43:44;17.99;86.63
65291;SHT30;51893;59.754;10.110;2022-08-03T05:46:13;18.11;86.35
65291;SHT30;51893;59.754;10.110;2022-08-03T05:48:41;18.28;85.58
65291;SHT30;51893;59.754;10.110;2022-08-03T05:51:09;18.44;85.32
65291;SHT30;51893;59.754;10.110;2022-08-03T05:53:39;18.61;84.89
65291;SHT30;51893;59.754;10.110;2022-08-03T05:56:08;18.73;84.52
65291;SHT30;51893;59.754;10.110;2022-08-03T05:58:42;18.82;84.26
65291;SHT30;51893;59.754;10.110;2022-08-03T06:01:14;18.90;83.44
65291;SHT30;51893;59.754;10.110;2022-08-03T06:03:44;18.95;83.88
65291;SHT30;51893;59.754;10.110;2022-08-03T06:06:12;18.97;83.91
65291;SHT30;51893;59.754;10.110;2022-08-03T06:08:41;18.93;83.65
65291;SHT30;51893;59.754;10.110;2022-08-03T06:11:10;18.88;83.50
65291;SHT30;51893;59.754;10.110;2022-08-03T06:13:39;18.88;83.57
65291;SHT30;51893;59.754;10.110;2022-08-03T06:16:07;18.89;83.67
65291;SHT30;51893;59.754;10.110;2022-08-03T06:18:36;18.90;83.64
65291;SHT30;51893;59.754;10.110;2022-08-03T06:21:04;18.92;83.52
65291;SHT30;51893;59.754;10.110;2022-08-03T06:23:42;18.92;83.36
65291;SHT30;51893;59.754;10.110;2022-08-03T06:26:23;18.93;83.80
65291;SHT30;51893;59.754;10.110;2022-08-03T06:28:52;18.96;83.65
65291;SHT30;51893;59.754;10.110;2022-08-03T06:31:22;18.97;83.43
65291;SHT30;51893;59.754;10.110;2022-08-03T06:34:03;18.98;83.40
65291;SHT30;51893;59.754;10.110;2022-08-03T06:36:52;18.99;82.97
65291;SHT30;51893;59.754;10.110;2022-08-03T06:39:28;19.01;82.67
65291;SHT30;51893;59.754;10.110;2022-08-03T06:41:56;19.00;83.16
65291;SHT30;51893;59.754;10.110;2022-08-03T06:44:24;19.01;83.18
65291;SHT30;51893;59.754;10.110;2022-08-03T06:46:52;19.03;83.07
65291;SHT30;51893;59.754;10.110;2022-08-03T06:49:20;19.05;83.15
65291;SHT30;51893;59.754;10.110;2022-08-03T06:51:48;19.05;83.31
65291;SHT30;51893;59.754;10.110;2022-08-03T06:54:33;19.06;83.29
65291;SHT30;51893;59.754;10.110;2022-08-03T06:57:02;19.08;83.24
65291;SHT30;51893;59.754;10.110;2022-08-03T06:59:31;19.09;82.99
65291;SHT30;51893;59.754;10.110;2022-08-03T07:02:19;19.10;83.29
65291;SHT30;51893;59.754;10.110;2022-08-03T07:04:47;19.11;83.48
65291;SHT30;51893;59.754;10.110;2022-08-03T07:07:15;19.13;83.45
65291;SHT30;51893;59.754;10.110;2022-08-03T07:09:44;19.15;82.75
65291;SHT30;51893;59.754;10.110;2022-08-03T07:12:27;19.21;82.90
65291;SHT30;51893;59.754;10.110;2022-08-03T07:14:57;19.25;83.18
65291;SHT30;51893;59.754;10.110;2022-08-03T07:17:30;19.27;83.12
65291;SHT30;51893;59.754;10.110;2022-08-03T07:20:03;19.29;82.98
65291;SHT30;51893;59.754;10.110;2022-08-03T07:22:34;19.32;82.95
65291;SHT30;51893;59.754;10.110;2022-08-03T07:25:02;19.35;82.96
65291;SHT30;51893;59.754;10.110;2022-08-03T07:27:31;19.41;82.84
65291;SHT30;51893;59.754;10.110;2022-08-03T07:30:00;19.49;82.55
65291;SHT30;51893;59.754;10.110;2022-08-03T07:32:29;19.54;82.15
65291;SHT30;51893;59.754;10.110;2022-08-03T07:34:58;19.59;82.07
65291;SHT30;51893;59.754;10.110;2022-08-03T07:37:28;19.64;81.91
65291;SHT30;51893;59.754;10.110;2022-08-03T07:39:57;19.71;82.08
65291;SHT30;51893;59.754;10.110;2022-08-03T07:42:28;19.77;82.06
65291;SHT30;51893;59.754;10.110;2022-08-03T07:44:57;19.89;82.21
65291;SHT30;51893;59.754;10.110;2022-08-03T07:47:27;20.05;81.86
65291;SHT30;51893;59.754;10.110;2022-08-03T07:50:03;20.17;81.65
65291;SHT30;51893;59.754;10.110;2022-08-03T07:52:35;20.25;81.40
65291;SHT30;51893;59.754;10.110;2022-08-03T07:55:17;20.27;81.11
65291;SHT30;51893;59.754;10.110;2022-08-03T07:57:58;20.33;81.23
65291;SHT30;51893;59.754;10.110;2022-08-03T08:00:38;20.53;80.80
65291;SHT30;51893;59.754;10.110;2022-08-03T08:03:06;20.73;80.34
65291;SHT30;51893;59.754;10.110;2022-08-03T08:05:35;20.86;79.47
65291;SHT30;51893;59.754;10.110;2022-08-03T08:08:03;20.93;79.03
65291;SHT30;51893;59.754;10.110;2022-08-03T08:10:31;21.01;79.04
65291;SHT30;51893;59.754;10.110;2022-08-03T08:13:00;21.05;77.99
65291;SHT30;51893;59.754;10.110;2022-08-03T08:15:30;21.05;77.13
65291;SHT30;51893;59.754;10.110;2022-08-03T08:17:59;21.02;76.80
65291;SHT30;51893;59.754;10.110;2022-08-03T08:20:31;21.02;76.84
65291;SHT30;51893;59.754;10.110;2022-08-03T08:23:05;20.99;76.30
65291;SHT30;51893;59.754;10.110;2022-08-03T08:25:54;21.03;76.69
65291;SHT30;51893;59.754;10.110;2022-08-03T08:28:22;21.13;77.17
65291;SHT30;51893;59.754;10.110;2022-08-03T08:30:59;21.25;76.85
65291;SHT30;51893;59.754;10.110;2022-08-03T08:33:28;21.45;76.42
65291;SHT30;51893;59.754;10.110;2022-08-03T08:36:17;21.65;76.31
65291;SHT30;51893;59.754;10.110;2022-08-03T08:38:46;21.88;76.12
65291;SHT30;51893;59.754;10.110;2022-08-03T08:41:14;22.00;74.62
65291;SHT30;51893;59.754;10.110;2022-08-03T08:43:43;22.06;74.34
65291;SHT30;51893;59.754;10.110;2022-08-03T08:46:14;22.03;74.30
65291;SHT30;51893;59.754;10.110;2022-08-03T08:48:50;22.03;73.67
65291;SHT30;51893;59.754;10.110;2022-08-03T08:51:21;22.11;73.23
65291;SHT30;51893;59.754;10.110;2022-08-03T08:54:17;22.18;72.34
65291;SHT30;51893;59.754;10.110;2022-08-03T08:56:51;22.37;73.78
65291;SHT30;51893;59.754;10.110;2022-08-03T08:59:23;22.63;73.90
65291;SHT30;51893;59.754;10.110;2022-08-03T09:01:55;22.88;73.92
65291;SHT30;51893;59.754;10.110;2022-08-03T09:04:25;23.08;73.31
65291;SHT30;51893;59.754;10.110;2022-08-03T09:06:55;23.15;71.54
65291;SHT30;51893;59.754;10.110;2022-08-03T09:09:43;23.20;71.42
65291;SHT30;51893;59.754;10.110;2022-08-03T09:12:35;23.35;70.91
65291;SHT30;51893;59.754;10.110;2022-08-03T09:15:43;23.31;68.42
65291;SHT30;51893;59.754;10.110;2022-08-03T09:18:05;23.32;69.14
65291;SHT30;51893;59.754;10.110;2022-08-03T09:20:33;23.26;69.08
65291;SHT30;51893;59.754;10.110;2022-08-03T09:23:07;23.28;69.63
65291;SHT30;51893;59.754;10.110;2022-08-03T09:25:57;23.31;69.15
65291;SHT30;51893;59.754;10.110;2022-08-03T09:28:32;23.26;68.61
65291;SHT30;51893;59.754;10.110;2022-08-03T09:31:37;23.31;68.69
65291;SHT30;51893;59.754;10.110;2022-08-03T09:34:12;23.41;68.61
65291;SHT30;51893;59.754;10.110;2022-08-03T09:44:45;23.64;67.76
65291;SHT30;51893;59.754;10.110;2022-08-03T09:47:26;23.73;67.31
65291;SHT30;51893;59.754;10.110;2022-08-03T09:49:57;23.77;67.34
65291;SHT30;51893;59.754;10.110;2022-08-03T09:52:29;23.80;67.57
65291;SHT30;51893;59.754;10.110;2022-08-03T09:55:19;23.65;68.27
65291;SHT30;51893;59.754;10.110;2022-08-03T09:58:09;23.45;68.30
65291;SHT30;51893;59.754;10.110;2022-08-03T10:01:23;23.34;68.10
65291;SHT30;51893;59.754;10.110;2022-08-03T10:03:34;23.26;68.28
65291;SHT30;51893;59.754;10.110;2022-08-03T10:06:25;23.11;67.85
65291;SHT30;51893;59.754;10.110;2022-08-03T10:09:04;23.04;69.15
65291;SHT30;51893;59.754;10.110;2022-08-03T10:11:37;23.05;69.30
65291;SHT30;51893;59.754;10.110;2022-08-03T10:14:10;23.20;69.38
65291;SHT30;51893;59.754;10.110;2022-08-03T10:16:46;23.36;68.80
65291;SHT30;51893;59.754;10.110;2022-08-03T10:19:15;23.48;67.26
65291;SHT30;51893;59.754;10.110;2022-08-03T10:21:47;23.65;66.80
65291;SHT30;51893;59.754;10.110;2022-08-03T10:24:37;23.87;65.88
65291;SHT30;51893;59.754;10.110;2022-08-03T10:27:10;23.95;64.89
65291;SHT30;51893;59.754;10.110;2022-08-03T10:29:46;24.18;66.14
65291;SHT30;51893;59.754;10.110;2022-08-03T10:32:25;24.35;64.50
65291;SHT30;51893;59.754;10.110;2022-08-03T10:35:03;24.47;64.62
65291;SHT30;51893;59.754;10.110;2022-08-03T10:40:26;24.58;63.28
65291;SHT30;51893;59.754;10.110;2022-08-03T10:43:20;24.59;62.83
65291;SHT30;51893;59.754;10.110;2022-08-03T10:45:53;24.69;63.04
65291;SHT30;51893;59.754;10.110;2022-08-03T10:48:23;24.92;63.02
65291;SHT30;51893;59.754;10.110;2022-08-03T10:50:52;25.04;62.01
65291;SHT30;51893;59.754;10.110;2022-08-03T10:53:34;25.17;61.82
65291;SHT30;51893;59.754;10.110;2022-08-03T10:56:05;25.25;60.89
65291;SHT30;51893;59.754;10.110;2022-08-03T10:59:17;25.35;60.81
65291;SHT30;51893;59.754;10.110;2022-08-03T11:02:02;25.41;60.84
65291;SHT30;51893;59.754;10.110;2022-08-03T11:04:29;25.58;60.38
65291;SHT30;51893;59.754;10.110;2022-08-03T11:09:46;25.64;58.85
65291;SHT30;51893;59.754;10.110;2022-08-03T11:12:30;25.50;58.54
65291;SHT30;51893;59.754;10.110;2022-08-03T11:15:01;25.57;59.44
65291;SHT30;51893;59.754;10.110;2022-08-03T11:17:33;25.47;58.97
65291;SHT30;51893;59.754;10.110;2022-08-03T11:23:41;25.48;58.98
65291;SHT30;51893;59.754;10.110;2022-08-03T11:26:32;25.47;58.54
65291;SHT30;51893;59.754;10.110;2022-08-03T11:31:57;25.37;59.20
65291;SHT30;51893;59.754;10.110;2022-08-03T11:34:25;25.40;59.62
65291;SHT30;51893;59.754;10.110;2022-08-03T11:39:57;25.43;58.80
65291;SHT30;51893;59.754;10.110;2022-08-03T11:44:56;25.56;59.53
65291;SHT30;51893;59.754;10.110;2022-08-03T11:47:27;25.69;59.48
65291;SHT30;51893;59.754;10.110;2022-08-03T11:49:57;25.78;58.66
65291;SHT30;51893;59.754;10.110;2022-08-03T11:52:36;25.87;58.54
65291;SHT30;51893;59.754;10.110;2022-08-03T11:55:09;25.98;58.20
65291;SHT30;51893;59.754;10.110;2022-08-03T11:57:40;26.06;58.06
65291;SHT30;51893;59.754;10.110;2022-08-03T12:00:29;26.28;58.78
65291;SHT30;51893;59.754;10.110;2022-08-03T12:03:06;26.47;58.03
65291;SHT30;51893;59.754;10.110;2022-08-03T12:05:42;26.40;57.40
65291;SHT30;51893;59.754;10.110;2022-08-03T12:11:01;26.47;57.35
65291;SHT30;51893;59.754;10.110;2022-08-03T12:16:23;25.79;58.55
65291;SHT30;51893;59.754;10.110;2022-08-03T12:18:59;25.75;59.21
65291;SHT30;51893;59.754;10.110;2022-08-03T12:21:29;25.82;58.82
65291;SHT30;51893;59.754;10.110;2022-08-03T12:24:00;25.65;58.79
65291;SHT30;51893;59.754;10.110;2022-08-03T12:26:45;25.48;59.34
65291;SHT30;51893;59.754;10.110;2022-08-03T12:29:26;25.25;59.32
65291;SHT30;51893;59.754;10.110;2022-08-03T12:31:54;25.19;59.80
65291;SHT30;51893;59.754;10.110;2022-08-03T12:34:22;25.38;59.58
65291;SHT30;51893;59.754;10.110;2022-08-03T12:36:51;25.61;59.36
65291;SHT30;51893;59.754;10.110;2022-08-03T12:39:23;25.76;59.06
65291;SHT30;51893;59.754;10.110;2022-08-03T12:41:54;25.99;59.22
65291;SHT30;51893;59.754;10.110;2022-08-03T12:44:30;26.18;59.15
65291;SHT30;51893;59.754;10.110;2022-08-03T12:47:02;26.26;58.70
65291;SHT30;51893;59.754;10.110;2022-08-03T12:49:45;26.12;58.39
65291;SHT30;51893;59.754;10.110;2022-08-03T12:52:23;26.22;59.11
65291;SHT30;51893;59.754;10.110;2022-08-03T12:54:57;26.44;58.99
65291;SHT30;51893;59.754;10.110;2022-08-03T12:57:39;26.63;58.30
65291;SHT30;51893;59.754;10.110;2022-08-03T13:00:16;26.57;58.04
65291;SHT30;51893;59.754;10.110;2022-08-03T13:02:59;26.34;58.36
65291;SHT30;51893;59.754;10.110;2022-08-03T13:05:53;26.00;58.70
65291;SHT30;51893;59.754;10.110;2022-08-03T13:08:22;25.70;59.25
65291;SHT30;51893;59.754;10.110;2022-08-03T13:10:51;25.45;59.65
65291;SHT30;51893;59.754;10.110;2022-08-03T13:13:38;25.44;60.46
65291;SHT30;51893;59.754;10.110;2022-08-03T13:16:07;25.72;60.00
65291;SHT30;51893;59.754;10.110;2022-08-03T13:18:34;25.79;59.80
65291;SHT30;51893;59.754;10.110;2022-08-03T13:21:04;25.83;59.93
65291;SHT30;51893;59.754;10.110;2022-08-03T13:23:32;25.96;59.26
65291;SHT30;51893;59.754;10.110;2022-08-03T13:26:00;25.95;59.46
65291;SHT30;51893;59.754;10.110;2022-08-03T13:28:27;25.78;59.12
65291;SHT30;51893;59.754;10.110;2022-08-03T13:30:56;25.71;59.80
65291;SHT30;51893;59.754;10.110;2022-08-03T13:33:23;25.95;59.70
65291;SHT30;51893;59.754;10.110;2022-08-03T13:35:54;26.19;58.76
65291;SHT30;51893;59.754;10.110;2022-08-03T13:38:23;26.39;58.35
65291;SHT30;51893;59.754;10.110;2022-08-03T13:40:54;26.58;57.70
65291;SHT30;51893;59.754;10.110;2022-08-03T13:43:22;26.54;57.45
65291;SHT30;51893;59.754;10.110;2022-08-03T13:45:50;26.67;57.71
65291;SHT30;51893;59.754;10.110;2022-08-03T13:48:24;26.61;57.68
65291;SHT30;51893;59.754;10.110;2022-08-03T13:51:04;26.59;57.90
65291;SHT30;51893;59.754;10.110;2022-08-03T13:53:52;26.69;58.08
65291;SHT30;51893;59.754;10.110;2022-08-03T13:56:20;26.82;58.01
65291;SHT30;51893;59.754;10.110;2022-08-03T13:58:47;26.97;57.71
65291;SHT30;51893;59.754;10.110;2022-08-03T14:01:15;27.25;57.47
65291;SHT30;51893;59.754;10.110;2022-08-03T14:03:48;27.39;57.13
65291;SHT30;51893;59.754;10.110;2022-08-03T14:06:20;27.23;56.78
65291;SHT30;51893;59.754;10.110;2022-08-03T14:08:49;26.88;57.34
65291;SHT30;51893;59.754;10.110;2022-08-03T14:11:18;26.51;57.78
65291;SHT30;51893;59.754;10.110;2022-08-03T14:13:46;26.24;58.01
65291;SHT30;51893;59.754;10.110;2022-08-03T14:16:14;26.21;58.52
65291;SHT30;51893;59.754;10.110;2022-08-03T14:18:43;26.21;58.94
65291;SHT30;51893;59.754;10.110;2022-08-03T14:21:12;26.34;59.08
65291;SHT30;51893;59.754;10.110;2022-08-03T14:23:40;26.22;59.43
65291;SHT30;51893;59.754;10.110;2022-08-03T14:26:08;26.01;59.83
65291;SHT30;51893;59.754;10.110;2022-08-03T14:28:38;25.80;60.45
65291;SHT30;51893;59.754;10.110;2022-08-03T14:31:06;25.97;60.51
65291;SHT30;51893;59.754;10.110;2022-08-03T14:33:54;26.18;60.01
65291;SHT30;51893;59.754;10.110;2022-08-03T14:36:22;26.19;59.73
65291;SHT30;51893;59.754;10.110;2022-08-03T14:38:49;26.30;59.68
65291;SHT30;51893;59.754;10.110;2022-08-03T14:41:18;26.44;59.75
65291;SHT30;51893;59.754;10.110;2022-08-03T14:43:46;26.51;59.31
65291;SHT30;51893;59.754;10.110;2022-08-03T14:46:28;26.59;59.18
65291;SHT30;51893;59.754;10.110;2022-08-03T14:48:58;26.73;58.93
65291;SHT30;51893;59.754;10.110;2022-08-03T14:51:46;26.77;58.37
65291;SHT30;51893;59.754;10.110;2022-08-03T14:54:20;26.59;58.37
65291;SHT30;51893;59.754;10.110;2022-08-03T14:56:49;26.46;58.35
65291;SHT30;51893;59.754;10.110;2022-08-03T14:59:17;26.24;58.88
65291;SHT30;51893;59.754;10.110;2022-08-03T15:01:45;26.23;59.22
65291;SHT30;51893;59.754;10.110;2022-08-03T15:04:32;26.37;59.24
65291;SHT30;51893;59.754;10.110;2022-08-03T15:07:01;26.38;58.98
65291;SHT30;51893;59.754;10.110;2022-08-03T15:09:29;26.40;58.93
65291;SHT30;51893;59.754;10.110;2022-08-03T15:11:58;26.46;58.43
65291;SHT30;51893;59.754;10.110;2022-08-03T15:14:26;26.46;58.27
65291;SHT30;51893;59.754;10.110;2022-08-03T15:16:59;26.53;58.04
65291;SHT30;51893;59.754;10.110;2022-08-03T15:19:27;26.57;57.80
65291;SHT30;51893;59.754;10.110;2022-08-03T15:22:15;26.65;57.95
65291;SHT30;51893;59.754;10.110;2022-08-03T15:24:51;26.81;57.27
65291;SHT30;51893;59.754;10.110;2022-08-03T15:27:20;26.73;56.69
65291;SHT30;51893;59.754;10.110;2022-08-03T15:29:48;26.74;56.89
65291;SHT30;51893;59.754;10.110;2022-08-03T15:32:36;26.79;56.56
65291;SHT30;51893;59.754;10.110;2022-08-03T15:35:03;26.81;56.60
65291;SHT30;51893;59.754;10.110;2022-08-03T15:37:32;26.90;56.33
65291;SHT30;51893;59.754;10.110;2022-08-03T15:40:00;26.87;56.22
65291;SHT30;51893;59.754;10.110;2022-08-03T15:42:29;26.77;55.91
65291;SHT30;51893;59.754;10.110;2022-08-03T15:44:59;26.65;56.16
65291;SHT30;51893;59.754;10.110;2022-08-03T15:47:26;26.62;56.19
65291;SHT30;51893;59.754;10.110;2022-08-03T15:49:54;26.60;56.24
65291;SHT30;51893;59.754;10.110;2022-08-03T15:52:22;26.57;56.49
65291;SHT30;51893;59.754;10.110;2022-08-03T15:54:50;26.55;56.39
65291;SHT30;51893;59.754;10.110;2022-08-03T15:57:18;26.54;56.25
65291;SHT30;51893;59.754;10.110;2022-08-03T15:59:47;26.52;56.16
65291;SHT30;51893;59.754;10.110;2022-08-03T16:02:15;26.54;55.93
65291;SHT30;51893;59.754;10.110;2022-08-03T16:04:43;26.54;55.91
65291;SHT30;51893;59.754;10.110;2022-08-03T16:07:11;26.56;55.32
65291;SHT30;51893;59.754;10.110;2022-08-03T16:09:42;26.53;55.47
65291;SHT30;51893;59.754;10.110;2022-08-03T16:12:10;26.47;55.86
65291;SHT30;51893;59.754;10.110;2022-08-03T16:14:43;26.53;55.90
65291;SHT30;51893;59.754;10.110;2022-08-03T16:17:19;26.55;55.92
65291;SHT30;51893;59.754;10.110;2022-08-03T16:19:49;26.41;55.99
65291;SHT30;51893;59.754;10.110;2022-08-03T16:22:24;26.33;56.32
65291;SHT30;51893;59.754;10.110;2022-08-03T16:24:53;26.31;56.70
65291;SHT30;51893;59.754;10.110;2022-08-03T16:27:21;26.28;56.81
65291;SHT30;51893;59.754;10.110;2022-08-03T16:30:11;26.31;57.09
65291;SHT30;51893;59.754;10.110;2022-08-03T16:32:44;26.32;56.85
65291;SHT30;51893;59.754;10.110;2022-08-03T16:35:13;26.34;56.99
65291;SHT30;51893;59.754;10.110;2022-08-03T16:37:47;26.46;56.95
65291;SHT30;51893;59.754;10.110;2022-08-03T16:40:23;26.43;56.96